Time;durP1;ratioP1;P1;durP2;ratioP2;P2;SDS_P1;SDS_P2;PMS_P1;PMS_P2;Temp;Humidity;BMP_temperature;BMP_pressure;BME280_temperature;BME280_humidity;BME280_pressure;Samples;Min_cycle;Max_cycle;Signal;HPM_P1;HPM_P2
2021/10/13 00:02:18;;;;;;;3.97;3.23;;;7.50;97.30;;;;;;5054907;28;20171;-88
2021/10/13 00:04:44;;;;;;;3.40;2.93;;;7.50;97.30;;;;;;5054892;28;20234;-88
2021/10/13 00:07:09;;;;;;;3.47;2.53;;;7.50;97.30;;;;;;5055316;28;20236;-88
2021/10/13 00:09:35;;;;;;;3.87;3.10;;;7.40;97.30;;;;;;5055091;28;20174;-88
2021/10/13 00:12:00;;;;;;;7.27;3.50;;;7.40;97.30;;;;;;5056657;28;20187;-88
2021/10/13 00:14:26;;;;;;;10.17;3.30;;;7.30;97.30;;;;;;5059276;28;20199;-88
2021/10/13 00:17:02;;;;;;;5.10;3.10;;;7.30;97.30;;;;;;5059563;28;20186;-87
2021/10/13 00:19:28;;;;;;;4.80;3.10;;;7.20;97.30;;;;;;5059057;28;20292;-88
2021/10/13 00:21:53;;;;;;;6.13;3.40;;;7.20;97.30;;;;;;5059393;28;20451;-88
2021/10/13 00:24:19;;;;;;;7.10;3.90;;;7.10;97.30;;;;;;5059189;28;20183;-88
2021/10/13 00:26:45;;;;;;;8.00;3.20;;;7.00;97.30;;;;;;5059202;28;20177;-87
2021/10/13 00:29:11;;;;;;;4.53;3.67;;;7.00;97.30;;;;;;5076779;28;20496;-87
2021/10/13 00:31:36;;;;;;;5.93;3.37;;;6.90;97.30;;;;;;5058856;28;20186;-88
2021/10/13 00:34:02;;;;;;;5.80;3.53;;;6.90;97.30;;;;;;5058892;28;20194;-88
2021/10/13 00:36:27;;;;;;;10.73;3.20;;;6.90;97.30;;;;;;5059108;28;20178;-88
2021/10/13 00:38:53;;;;;;;4.63;3.67;;;6.80;97.30;;;;;;5058646;28;20205;-88
2021/10/13 00:41:18;;;;;;;5.63;3.87;;;6.80;97.30;;;;;;5058809;28;20178;-88
2021/10/13 00:43:44;;;;;;;9.47;2.93;;;6.80;97.30;;;;;;5058282;28;20195;-87
2021/10/13 00:46:10;;;;;;;5.40;3.40;;;6.80;97.30;;;;;;5058594;28;20273;-88
2021/10/13 00:48:35;;;;;;;6.50;3.73;;;6.70;97.30;;;;;;5058629;28;20179;-88
2021/10/13 00:51:01;;;;;;;7.10;3.30;;;6.70;97.30;;;;;;5058913;28;20175;-87
2021/10/13 00:53:27;;;;;;;4.77;3.40;;;6.60;97.30;;;;;;5058549;28;20244;-87
2021/10/13 00:55:53;;;;;;;9.53;3.53;;;6.60;97.30;;;;;;5076517;28;20171;-88
2021/10/13 00:58:19;;;;;;;8.80;2.87;;;6.60;97.30;;;;;;5058448;28;20505;-87
2021/10/13 01:00:52;;;;;;;7.53;3.90;;;6.60;97.30;;;;;;5058210;28;20496;-87
2021/10/13 01:03:27;;;;;;;4.63;3.30;;;6.60;97.30;;;;;;5058194;28;20473;-88
2021/10/13 01:06:07;;;;;;;5.87;3.20;;;6.60;97.30;;;;;;5058658;28;20420;-88
2021/10/13 01:08:58;;;;;;;10.70;3.97;;;6.60;97.30;;;;;;5058563;28;20504;-88
2021/10/13 01:11:44;;;;;;;3.87;3.13;;;6.60;97.30;;;;;;5058414;28;20409;-88
2021/10/13 01:14:42;;;;;;;8.63;4.50;;;6.60;97.30;;;;;;5058053;28;20441;-88
2021/10/13 01:17:16;;;;;;;8.43;3.07;;;6.70;97.30;;;;;;5058282;28;20405;-88
2021/10/13 01:19:45;;;;;;;6.43;3.90;;;6.70;97.30;;;;;;5058014;28;20870;-88
2021/10/13 01:22:35;;;;;;;9.30;3.30;;;6.60;97.30;;;;;;5057649;28;21060;-89
2021/10/13 01:25:15;;;;;;;4.40;3.30;;;6.60;97.30;;;;;;5057193;28;20460;-89
2021/10/13 01:28:03;;;;;;;8.53;4.87;;;6.60;97.30;;;;;;5058186;28;20406;-88
2021/10/13 01:30:37;;;;;;;7.73;3.30;;;6.60;97.30;;;;;;5058010;28;20941;-88
2021/10/13 01:33:09;;;;;;;4.17;2.80;;;6.60;97.30;;;;;;5057968;28;20483;-88
2021/10/13 01:35:41;;;;;;;4.17;3.30;;;6.60;97.30;;;;;;5056478;28;20544;-88
2021/10/13 01:38:12;;;;;;;29.17;4.37;;;6.50;97.30;;;;;;5037940;28;20430;-88
2021/10/13 01:40:39;;;;;;;5.53;3.30;;;6.50;97.30;;;;;;5037741;28;20476;-89
2021/10/13 01:43:05;;;;;;;8.97;4.10;;;6.50;97.30;;;;;;5037747;28;20410;-88
2021/10/13 01:45:33;;;;;;;6.20;3.40;;;6.50;97.30;;;;;;5037698;28;20854;-88
2021/10/13 01:48:01;;;;;;;6.37;3.73;;;6.40;97.30;;;;;;5037491;28;20951;-88
2021/10/13 01:50:28;;;;;;;7.50;3.57;;;6.40;97.30;;;;;;5037244;28;20913;-88
2021/10/13 01:52:55;;;;;;;6.80;3.37;;;6.40;97.30;;;;;;5037720;28;20476;-88
2021/10/13 01:55:24;;;;;;;7.30;3.97;;;6.40;97.30;;;;;;5036941;28;20807;-88
2021/10/13 01:57:54;;;;;;;8.47;3.77;;;6.40;97.30;;;;;;5037245;28;20426;-88
2021/10/13 02:00:22;;;;;;;5.40;3.50;;;6.30;97.30;;;;;;5037272;28;20458;-88
2021/10/13 02:02:49;;;;;;;6.27;3.57;;;6.30;97.30;;;;;;5036868;28;20414;-88
2021/10/13 02:05:15;;;;;;;5.17;3.77;;;6.30;97.30;;;;;;5054430;28;20461;-88
2021/10/13 02:07:43;;;;;;;4.93;3.50;;;6.30;97.30;;;;;;5037087;28;20517;-88
2021/10/13 02:10:11;;;;;;;10.43;3.83;;;6.20;97.30;;;;;;5036552;28;20414;-88
2021/10/13 02:12:39;;;;;;;9.00;4.57;;;6.20;97.30;;;;;;5037060;28;20422;-89
2021/10/13 02:15:06;;;;;;;7.17;3.90;;;6.10;97.30;;;;;;5036854;28;20442;-88
2021/10/13 02:17:37;;;;;;;9.07;4.07;;;6.10;97.30;;;;;;5037047;28;20422;-88
2021/10/13 02:20:03;;;;;;;9.70;3.67;;;6.00;97.30;;;;;;5037012;28;20507;-88
2021/10/13 02:22:30;;;;;;;15.90;4.27;;;5.90;97.30;;;;;;5037015;28;20912;-88
2021/10/13 02:24:55;;;;;;;11.33;5.60;;;5.80;97.30;;;;;;5037071;28;20438;-88
2021/10/13 02:27:30;;;;;;;8.17;4.20;;;5.80;97.30;;;;;;5037051;28;20475;-87
2021/10/13 02:29:56;;;;;;;9.80;4.13;;;5.80;97.30;;;;;;5036814;28;20594;-87
2021/10/13 02:32:22;;;;;;;6.57;4.00;;;5.80;97.30;;;;;;5036678;28;20461;-87
2021/10/13 02:34:49;;;;;;;5.50;3.50;;;5.80;97.30;;;;;;5035834;28;20811;-88
2021/10/13 02:37:15;;;;;;;7.00;3.93;;;5.70;97.30;;;;;;5036509;28;20176;-88
2021/10/13 02:39:41;;;;;;;7.00;4.00;;;5.70;97.30;;;;;;5036454;28;20466;-87
2021/10/13 02:42:07;;;;;;;9.00;4.67;;;5.70;97.30;;;;;;5036621;28;20422;-87
2021/10/13 02:44:34;;;;;;;6.20;3.87;;;5.60;97.30;;;;;;5036125;28;20650;-87
2021/10/13 02:47:15;;;;;;;7.00;3.83;;;5.60;97.30;;;;;;5036661;28;20417;-86
2021/10/13 02:50:02;;;;;;;7.00;4.20;;;5.60;97.30;;;;;;5050070;28;20429;-87
2021/10/13 02:52:41;;;;;;;4.30;3.30;;;5.50;97.30;;;;;;5056315;28;20839;-87
2021/10/13 02:55:19;;;;;;;6.17;4.17;;;5.50;97.30;;;;;;5055973;28;20538;-88
2021/10/13 02:57:53;;;;;;;6.17;4.03;;;5.40;97.30;;;;;;5056480;28;20789;-87
2021/10/13 03:00:21;;;;;;;10.47;4.10;;;5.40;97.30;;;;;;5055108;28;20448;-88
2021/10/13 03:02:56;;;;;;;8.60;4.40;;;5.40;97.30;;;;;;5055356;28;20406;-87
2021/10/13 03:05:24;;;;;;;6.03;4.10;;;5.40;97.30;;;;;;5055168;28;21011;-87
2021/10/13 03:07:52;;;;;;;11.10;4.77;;;5.40;97.30;;;;;;5055558;28;20516;-87
2021/10/13 03:10:18;;;;;;;8.03;4.00;;;5.40;97.30;;;;;;5055383;28;20430;-86
2021/10/13 03:12:54;;;;;;;5.13;3.87;;;5.50;97.30;;;;;;5055974;28;20793;-87
2021/10/13 03:15:21;;;;;;;9.77;4.00;;;5.50;97.30;;;;;;5055560;28;20480;-87
2021/10/13 03:17:52;;;;;;;7.20;3.70;;;5.50;97.30;;;;;;5055929;28;20425;-87
2021/10/13 03:20:19;;;;;;;6.77;4.47;;;5.50;97.30;;;;;;5056075;28;20534;-89
2021/10/13 03:22:45;;;;;;;5.33;3.23;;;5.50;97.30;;;;;;5056286;28;20479;-88
2021/10/13 03:25:10;;;;;;;7.23;3.83;;;5.50;97.30;;;;;;5056279;28;20981;-88
2021/10/13 03:27:37;;;;;;;6.03;4.00;;;5.50;97.30;;;;;;5056531;28;20428;-88
2021/10/13 03:30:05;;;;;;;5.07;3.97;;;5.50;97.30;;;;;;5055813;28;20239;-87
2021/10/13 03:32:31;;;;;;;6.90;4.60;;;5.50;97.30;;;;;;5044808;28;20588;-86
2021/10/13 03:34:56;;;;;;;5.80;4.30;;;5.50;97.30;;;;;;5036048;28;20500;-87
2021/10/13 03:37:22;;;;;;;8.87;4.23;;;5.50;97.30;;;;;;5041292;28;20205;-86
2021/10/13 03:39:48;;;;;;;7.57;4.37;;;5.50;97.30;;;;;;5035701;28;20200;-86
2021/10/13 03:42:14;;;;;;;12.10;4.70;;;5.40;97.30;;;;;;5035751;28;20270;-87
2021/10/13 03:44:40;;;;;;;8.77;4.17;;;5.40;97.30;;;;;;5035551;28;20974;-87
2021/10/13 03:47:06;;;;;;;5.93;3.63;;;5.40;97.30;;;;;;5040605;28;20176;-86
2021/10/13 03:49:33;;;;;;;12.50;4.33;;;5.40;97.30;;;;;;5025198;28;20204;-87
2021/10/13 03:51:59;;;;;;;7.27;3.93;;;5.40;97.30;;;;;;5021383;28;20435;-87
2021/10/13 03:54:24;;;;;;;7.60;3.40;;;5.40;97.30;;;;;;5030053;28;20959;-87
2021/10/13 03:56:51;;;;;;;9.47;4.57;;;5.40;97.30;;;;;;5017951;28;20477;-87
2021/10/13 03:59:17;;;;;;;8.80;4.23;;;5.40;97.30;;;;;;5035514;28;20211;-87
2021/10/13 04:01:42;;;;;;;10.33;4.30;;;5.40;97.30;;;;;;5041264;28;20413;-87
2021/10/13 04:04:08;;;;;;;8.40;4.10;;;5.40;97.30;;;;;;5017970;28;20216;-87
2021/10/13 04:06:34;;;;;;;10.07;5.90;;;5.40;97.30;;;;;;5015748;28;20705;-87
2021/10/13 04:08:59;;;;;;;14.63;4.33;;;5.40;97.30;;;;;;5029945;28;20418;-87
2021/10/13 04:11:25;;;;;;;10.27;4.90;;;5.40;97.30;;;;;;5038374;28;20242;-86
2021/10/13 04:13:51;;;;;;;13.63;5.30;;;5.40;97.30;;;;;;5015712;28;20204;-85
2021/10/13 04:16:17;;;;;;;7.40;4.03;;;5.40;97.30;;;;;;5024687;28;20429;-87
2021/10/13 04:18:43;;;;;;;11.40;4.77;;;5.40;97.30;;;;;;5035225;28;20275;-87
2021/10/13 04:21:08;;;;;;;13.63;4.77;;;5.40;97.30;;;;;;5035204;28;20569;-86
2021/10/13 04:23:34;;;;;;;9.20;4.10;;;5.40;97.30;;;;;;5041677;28;20197;-86
2021/10/13 04:26:00;;;;;;;8.43;4.27;;;5.40;97.30;;;;;;5015664;28;20176;-86
2021/10/13 04:28:25;;;;;;;9.40;5.00;;;5.40;97.30;;;;;;5016086;28;20595;-86
2021/10/13 04:30:51;;;;;;;11.83;5.00;;;5.40;97.30;;;;;;5015374;28;20180;-86
2021/10/13 04:33:17;;;;;;;11.30;4.40;;;5.40;97.30;;;;;;5018337;28;20653;-86
2021/10/13 04:35:42;;;;;;;11.37;5.53;;;5.40;97.30;;;;;;5035663;28;20180;-87
2021/10/13 04:38:08;;;;;;;10.43;4.60;;;5.40;97.30;;;;;;5040533;28;20184;-86
2021/10/13 04:40:34;;;;;;;10.40;5.00;;;5.40;97.30;;;;;;5015105;28;20201;-85
2021/10/13 04:43:00;;;;;;;9.40;5.50;;;5.40;97.30;;;;;;5034956;28;20176;-87
2021/10/13 04:45:26;;;;;;;16.57;5.50;;;5.40;97.30;;;;;;5029336;28;20291;-86
2021/10/13 04:47:52;;;;;;;12.33;5.37;;;5.40;97.30;;;;;;5046695;28;20568;-86
2021/10/13 04:50:18;;;;;;;10.73;4.90;;;5.40;97.30;;;;;;5035019;28;20471;-86
2021/10/13 04:52:43;;;;;;;13.30;5.03;;;5.40;97.30;;;;;;5053825;28;20473;-86
2021/10/13 04:55:11;;;;;;;11.43;4.60;;;5.40;97.30;;;;;;5054839;28;20199;-86
2021/10/13 04:57:37;;;;;;;10.17;5.63;;;5.30;97.30;;;;;;5055005;28;20183;-86
2021/10/13 05:00:04;;;;;;;11.43;4.73;;;5.30;97.30;;;;;;5057751;28;20996;-85
2021/10/13 05:02:30;;;;;;;14.77;6.47;;;5.30;97.30;;;;;;5076063;28;20254;-86
2021/10/13 05:04:55;;;;;;;9.93;5.60;;;5.30;97.30;;;;;;5058360;28;20495;-86
2021/10/13 05:07:21;;;;;;;12.50;5.17;;;5.30;97.30;;;;;;5058474;28;20225;-86
2021/10/13 05:09:47;;;;;;;15.63;6.07;;;5.30;97.30;;;;;;5058695;28;20183;-86
2021/10/13 05:12:12;;;;;;;12.57;5.97;;;5.30;97.30;;;;;;5058552;28;20175;-86
2021/10/13 05:14:38;;;;;;;16.50;6.23;;;5.30;97.30;;;;;;5058611;28;20203;-86
2021/10/13 05:17:03;;;;;;;12.70;6.67;;;5.30;97.30;;;;;;5058357;28;20549;-86
2021/10/13 05:19:29;;;;;;;15.50;6.60;;;5.30;97.30;;;;;;5076045;28;20207;-86
2021/10/13 05:21:54;;;;;;;17.63;6.10;;;5.30;97.30;;;;;;5058356;28;20175;-86
2021/10/13 05:24:20;;;;;;;15.77;7.50;;;5.30;97.30;;;;;;5076131;28;20187;-86
2021/10/13 05:26:46;;;;;;;14.37;6.00;;;5.30;97.30;;;;;;5058370;28;20693;-86
2021/10/13 05:29:11;;;;;;;18.77;6.30;;;5.30;97.30;;;;;;5058404;28;20175;-86
2021/10/13 05:31:37;;;;;;;15.17;5.90;;;5.30;97.30;;;;;;5058166;28;20187;-86
2021/10/13 05:34:02;;;;;;;20.77;7.13;;;5.30;97.30;;;;;;5058182;28;20195;-86
2021/10/13 05:36:28;;;;;;;17.17;6.53;;;5.20;97.30;;;;;;5058004;28;20655;-86
2021/10/13 05:38:54;;;;;;;14.50;6.50;;;5.20;97.30;;;;;;5057944;28;20179;-86
2021/10/13 05:41:19;;;;;;;19.20;7.50;;;5.20;97.30;;;;;;5057788;28;20175;-86
2021/10/13 05:43:45;;;;;;;17.90;6.80;;;5.20;97.30;;;;;;5057895;28;20217;-86
2021/10/13 05:46:10;;;;;;;16.17;7.53;;;5.30;97.30;;;;;;5057638;28;20206;-85
2021/10/13 05:48:36;;;;;;;15.63;6.93;;;5.30;97.30;;;;;;5058074;28;20180;-85
2021/10/13 05:51:02;;;;;;;15.17;6.57;;;5.30;97.30;;;;;;5057617;28;20183;-86
2021/10/13 05:53:29;;;;;;;19.30;7.40;;;5.30;97.30;;;;;;5057944;28;20183;-86
2021/10/13 05:55:54;;;;;;;14.80;6.67;;;5.30;97.30;;;;;;5058112;28;20542;-86
2021/10/13 05:58:22;;;;;;;17.60;5.67;;;5.30;97.30;;;;;;5057500;28;20425;-86
2021/10/13 06:00:48;;;;;;;13.33;7.10;;;5.40;97.30;;;;;;5057810;28;20199;-86
2021/10/13 06:03:14;;;;;;;17.13;7.00;;;5.40;97.30;;;;;;5057500;28;20910;-86
2021/10/13 06:05:40;;;;;;;18.37;7.97;;;5.40;97.30;;;;;;5058666;28;20175;-85
2021/10/13 06:08:05;;;;;;;20.27;7.90;;;5.40;97.30;;;;;;5075751;28;20174;-86
2021/10/13 06:10:31;;;;;;;21.20;8.20;;;5.40;97.30;;;;;;5057761;28;20441;-85
2021/10/13 06:12:57;;;;;;;23.23;10.00;;;5.40;97.30;;;;;;5057910;28;20233;-84
2021/10/13 06:15:24;;;;;;;19.30;7.73;;;5.40;97.30;;;;;;5056336;28;20249;-86
2021/10/13 06:17:50;;;;;;;22.97;9.00;;;5.50;97.30;;;;;;5055388;28;20183;-86
2021/10/13 06:20:16;;;;;;;22.43;9.43;;;5.50;97.30;;;;;;5072983;28;20461;-86
2021/10/13 06:22:42;;;;;;;19.13;7.30;;;5.50;97.30;;;;;;5055839;28;20488;-86
2021/10/13 06:25:08;;;;;;;21.43;8.73;;;5.50;97.30;;;;;;5056670;28;20438;-85
2021/10/13 06:27:33;;;;;;;18.53;7.73;;;5.50;97.30;;;;;;5075040;28;20182;-85
2021/10/13 06:29:59;;;;;;;23.17;9.30;;;5.50;97.30;;;;;;5041059;28;20426;-85
2021/10/13 06:32:25;;;;;;;25.83;9.73;;;5.60;97.30;;;;;;5040521;28;20274;-85
2021/10/13 06:34:50;;;;;;;28.60;10.20;;;5.60;97.30;;;;;;5038394;28;20204;-86
2021/10/13 06:37:16;;;;;;;29.33;10.10;;;5.70;97.30;;;;;;5038965;28;20270;-85
2021/10/13 06:39:42;;;;;;;25.53;9.00;;;5.70;97.30;;;;;;5038566;28;20691;-85
2021/10/13 06:42:07;;;;;;;29.07;10.10;;;5.80;97.30;;;;;;5038735;28;20176;-85
2021/10/13 06:44:33;;;;;;;33.50;11.73;;;5.90;97.30;;;;;;5037519;28;20200;-86
2021/10/13 06:46:58;;;;;;;32.10;10.70;;;5.90;97.30;;;;;;5037339;28;20207;-86
2021/10/13 06:49:24;;;;;;;32.67;11.07;;;6.00;97.30;;;;;;5048040;28;20232;-84
2021/10/13 06:51:50;;;;;;;30.23;11.33;;;6.10;97.30;;;;;;5056433;28;20186;-85
2021/10/13 06:54:16;;;;;;;32.87;10.50;;;6.10;97.30;;;;;;5055465;28;20195;-85
2021/10/13 06:56:41;;;;;;;38.77;12.20;;;6.20;97.30;;;;;;5055923;28;20277;-86
2021/10/13 06:59:07;;;;;;;31.60;11.50;;;6.30;97.30;;;;;;5055584;28;20544;-86
2021/10/13 07:01:33;;;;;;;30.70;11.07;;;6.40;97.30;;;;;;5056520;28;20615;-87
2021/10/13 07:03:59;;;;;;;38.57;12.80;;;6.40;97.30;;;;;;5056314;28;20230;-86
2021/10/13 07:06:25;;;;;;;32.80;10.67;;;6.50;97.30;;;;;;5056011;28;20413;-86
2021/10/13 07:08:52;;;;;;;41.13;11.07;;;6.50;97.30;;;;;;5056312;28;20420;-86
2021/10/13 07:11:21;;;;;;;35.13;12.27;;;6.60;97.30;;;;;;5056245;28;20489;-85
2021/10/13 07:13:47;;;;;;;31.27;10.30;;;6.60;97.30;;;;;;5056117;28;20799;-86
2021/10/13 07:16:12;;;;;;;34.43;10.63;;;6.70;97.30;;;;;;5056330;28;20925;-86
2021/10/13 07:18:38;;;;;;;29.30;10.43;;;6.70;97.30;;;;;;5056241;28;20183;-85
2021/10/13 07:21:04;;;;;;;41.03;12.60;;;6.80;97.30;;;;;;5056998;28;20297;-85
2021/10/13 07:23:29;;;;;;;25.10;11.53;;;6.90;97.30;;;;;;5074707;28;20178;-86
2021/10/13 07:25:55;;;;;;;31.53;10.30;;;6.90;97.30;;;;;;5056190;28;20176;-86
2021/10/13 07:28:22;;;;;;;25.00;9.70;;;7.00;97.30;;;;;;5056222;28;20648;-86
2021/10/13 07:30:47;;;;;;;34.33;10.50;;;7.00;97.30;;;;;;5048181;28;20202;-86
2021/10/13 07:33:13;;;;;;;29.90;9.10;;;7.10;97.30;;;;;;5036318;28;20418;-85
2021/10/13 07:35:41;;;;;;;31.67;9.80;;;7.10;97.30;;;;;;5036293;28;20578;-87
2021/10/13 07:38:12;;;;;;;20.73;9.00;;;7.20;97.30;;;;;;5035292;28;20192;-86
2021/10/13 07:40:38;;;;;;;22.60;8.67;;;7.20;97.30;;;;;;5035228;28;20473;-86
2021/10/13 07:43:04;;;;;;;22.17;9.43;;;7.30;97.30;;;;;;5036455;28;20444;-86
2021/10/13 07:45:30;;;;;;;22.37;9.27;;;7.30;97.30;;;;;;5035487;28;20442;-86
2021/10/13 07:47:56;;;;;;;23.00;8.77;;;7.40;97.30;;;;;;5035737;28;20417;-86
2021/10/13 07:50:22;;;;;;;20.37;8.57;;;7.40;97.30;;;;;;5054546;28;20421;-85
2021/10/13 07:52:47;;;;;;;28.80;9.77;;;7.50;97.30;;;;;;5056014;28;20641;-86
2021/10/13 07:55:13;;;;;;;22.40;8.97;;;7.50;97.30;;;;;;5054433;28;20199;-86
2021/10/13 07:57:39;;;;;;;27.73;9.67;;;7.60;97.30;;;;;;5054829;28;20266;-86
2021/10/13 08:00:06;;;;;;;21.40;8.10;;;7.70;97.30;;;;;;5055121;28;20755;-83
2021/10/13 08:02:31;;;;;;;20.47;8.93;;;7.80;97.30;;;;;;5055620;28;20309;-87
2021/10/13 08:04:57;;;;;;;19.60;7.50;;;7.90;97.30;;;;;;5056443;28;20509;-85
2021/10/13 08:07:22;;;;;;;19.77;9.20;;;7.90;97.30;;;;;;5072907;28;20190;-87
2021/10/13 08:09:48;;;;;;;21.83;8.53;;;8.00;97.30;;;;;;5054784;28;20179;-87
2021/10/13 08:12:14;;;;;;;23.60;8.40;;;8.10;97.30;;;;;;5055480;28;20185;-86
2021/10/13 08:14:39;;;;;;;16.87;8.00;;;8.10;97.30;;;;;;5055141;28;20195;-87
2021/10/13 08:17:07;;;;;;;20.10;8.10;;;8.20;97.30;;;;;;5054276;28;20202;-86
2021/10/13 08:19:32;;;;;;;18.30;7.10;;;8.20;97.30;;;;;;5054353;28;20238;-86
2021/10/13 08:21:58;;;;;;;20.17;7.77;;;8.30;97.30;;;;;;5055637;28;20421;-85
2021/10/13 08:24:24;;;;;;;19.07;8.97;;;8.30;97.30;;;;;;5054480;28;20399;-87
2021/10/13 08:26:49;;;;;;;19.30;7.40;;;8.30;97.30;;;;;;5055084;28;20171;-86
2021/10/13 08:29:15;;;;;;;18.30;7.27;;;8.40;97.30;;;;;;5054837;28;20186;-87
2021/10/13 08:31:40;;;;;;;28.77;9.50;;;8.50;97.30;;;;;;5054690;28;20688;-86
2021/10/13 08:34:06;;;;;;;19.33;7.83;;;8.50;97.30;;;;;;5056511;28;20186;-87
2021/10/13 08:36:32;;;;;;;18.57;8.60;;;8.50;97.30;;;;;;5058704;28;20181;-87
2021/10/13 08:38:58;;;;;;;16.80;7.27;;;8.50;97.30;;;;;;5058679;28;20509;-87
2021/10/13 08:41:23;;;;;;;16.20;7.93;;;8.50;97.30;;;;;;5076583;28;20181;-87
2021/10/13 08:43:49;;;;;;;17.50;6.80;;;8.50;97.30;;;;;;5058292;28;20668;-86
2021/10/13 08:46:15;;;;;;;17.63;7.23;;;8.60;97.30;;;;;;5058293;28;20271;-87
2021/10/13 08:48:40;;;;;;;15.17;7.00;;;8.70;97.30;;;;;;5058268;28;20175;-87
2021/10/13 08:51:06;;;;;;;19.60;7.87;;;8.80;97.30;;;;;;5058716;28;20230;-87
2021/10/13 08:53:32;;;;;;;16.00;6.60;;;8.90;97.30;;;;;;5057998;28;20183;-86
2021/10/13 08:55:58;;;;;;;15.00;7.00;;;9.10;97.30;;;;;;5058906;28;20199;-87
2021/10/13 08:58:26;;;;;;;16.17;7.27;;;9.10;97.30;;;;;;5058744;28;20175;-87
2021/10/13 09:01:04;;;;;;;16.70;7.77;;;9.10;97.30;;;;;;5058146;28;20608;-87
2021/10/13 09:03:33;;;;;;;13.27;7.10;;;9.20;97.30;;;;;;5058509;28;21018;-87
2021/10/13 09:06:16;;;;;;;23.97;7.77;;;9.20;97.30;;;;;;5058458;28;20452;-88
2021/10/13 09:09:10;;;;;;;15.00;7.27;;;9.20;97.30;;;;;;5057647;28;20429;-87
2021/10/13 09:11:45;;;;;;;15.80;7.30;;;9.30;97.30;;;;;;5059336;28;20440;-88
2021/10/13 09:14:17;;;;;;;13.57;6.73;;;9.40;97.30;;;;;;5058438;28;20445;-88
2021/10/13 09:16:55;;;;;;;16.10;8.10;;;9.40;97.30;;;;;;5058191;28;20453;-87
2021/10/13 09:19:37;;;;;;;14.27;6.90;;;9.50;97.30;;;;;;5058137;28;20824;-88
2021/10/13 09:22:09;;;;;;;11.70;6.17;;;9.50;97.30;;;;;;5058023;28;20486;-87
2021/10/13 09:24:46;;;;;;;23.03;8.00;;;9.60;97.30;;;;;;5057922;28;20432;-88
2021/10/13 09:27:26;;;;;;;13.63;5.70;;;9.60;97.30;;;;;;5058471;28;20421;-89
2021/10/13 09:30:09;;;;;;;15.27;7.17;;;9.50;97.30;;;;;;5057663;28;20425;-87
2021/10/13 09:32:43;;;;;;;20.63;6.90;;;9.60;97.30;;;;;;5058173;28;21009;-88
2021/10/13 09:35:09;;;;;;;14.50;7.33;;;9.60;97.30;;;;;;5057643;28;20453;-87
2021/10/13 09:37:50;;;;;;;16.43;7.10;;;9.70;97.30;;;;;;5057808;28;20429;-87
2021/10/13 09:40:32;;;;;;;13.30;6.10;;;9.60;97.30;;;;;;5042322;28;20489;-87
2021/10/13 09:42:58;;;;;;;18.33;7.27;;;9.50;97.30;;;;;;5037319;28;20686;-87
2021/10/13 09:45:26;;;;;;;17.00;8.30;;;9.70;97.30;;;;;;5036888;28;20526;-87
2021/10/13 09:47:58;;;;;;;15.33;7.10;;;9.90;97.30;;;;;;5037453;28;20923;-86
2021/10/13 09:50:44;;;;;;;14.00;6.67;;;10.00;97.30;;;;;;5056719;28;20488;-86
2021/10/13 09:53:19;;;;;;;14.77;6.53;;;10.00;97.30;;;;;;5057405;28;20840;-87
2021/10/13 09:55:45;;;;;;;14.30;7.40;;;10.20;97.30;;;;;;5056859;28;20436;-86
2021/10/13 09:58:35;;;;;;;15.70;7.40;;;10.40;97.30;;;;;;5057177;28;20421;-86
2021/10/13 10:01:11;;;;;;;15.27;6.73;;;10.40;97.30;;;;;;5056323;28;20264;-86
2021/10/13 10:03:40;;;;;;;12.37;6.80;;;10.60;97.30;;;;;;5055636;28;20465;-86
2021/10/13 10:06:06;;;;;;;15.47;7.20;;;10.70;97.30;;;;;;5055574;28;21006;-86
2021/10/13 10:08:57;;;;;;;15.97;7.17;;;10.90;97.30;;;;;;5055535;28;20470;-85
2021/10/13 10:11:34;;;;;;;10.40;6.43;;;10.90;97.30;;;;;;5055212;28;20416;-87
2021/10/13 10:14:01;;;;;;;11.70;6.00;;;10.90;97.30;;;;;;5055283;28;20824;-86
2021/10/13 10:16:34;;;;;;;13.53;6.70;;;10.90;97.30;;;;;;5055450;28;20780;-87
2021/10/13 10:19:25;;;;;;;13.40;6.07;;;10.80;97.30;;;;;;5055164;28;20410;-86
2021/10/13 10:21:56;;;;;;;10.20;5.03;;;10.90;97.30;;;;;;5055265;28;20425;-87
2021/10/13 10:24:29;;;;;;;17.30;5.73;;;10.90;97.30;;;;;;5055121;28;20809;-86
2021/10/13 10:27:18;;;;;;;7.57;4.37;;;10.80;97.30;;;;;;5051511;28;20796;-86
2021/10/13 10:29:44;;;;;;;8.50;5.13;;;10.80;97.30;;;;;;5043659;28;21019;-87
2021/10/13 10:32:18;;;;;;;7.70;4.80;;;10.70;97.30;;;;;;5040510;28;20521;-87
2021/10/13 10:35:03;;;;;;;8.57;4.37;;;10.70;97.30;;;;;;5047136;28;20248;-87
2021/10/13 10:37:48;;;;;;;8.50;4.33;;;10.70;97.30;;;;;;5052793;28;20461;-87
2021/10/13 10:40:28;;;;;;;12.67;5.10;;;10.70;97.30;;;;;;5042967;28;20503;-87
2021/10/13 10:42:57;;;;;;;7.00;3.97;;;10.70;97.30;;;;;;5051789;28;20413;-87
2021/10/13 10:45:49;;;;;;;6.40;3.87;;;10.70;97.30;;;;;;5056431;28;20433;-87
2021/10/13 10:48:16;;;;;;;14.43;4.37;;;10.60;97.30;;;;;;5043059;28;21069;-87
2021/10/13 10:50:55;;;;;;;7.27;4.10;;;10.70;97.30;;;;;;5056602;28;20453;-87
2021/10/13 10:53:38;;;;;;;6.43;4.23;;;10.70;97.30;;;;;;5056685;28;20760;-88
2021/10/13 10:56:21;;;;;;;6.10;3.83;;;11.00;97.30;;;;;;5041476;28;20422;-87
2021/10/13 10:58:57;;;;;;;6.23;3.43;;;11.20;97.30;;;;;;5047551;28;20462;-86
2021/10/13 11:01:23;;;;;;;7.73;3.70;;;11.30;97.30;;;;;;5046282;28;20410;-88
2021/10/13 11:03:49;;;;;;;4.60;2.90;;;11.30;97.30;;;;;;5036681;28;20470;-87
2021/10/13 11:06:24;;;;;;;4.27;2.93;;;11.40;97.30;;;;;;5026067;28;20415;-87
2021/10/13 11:09:04;;;;;;;3.67;2.87;;;11.70;97.30;;;;;;4984886;28;20444;-84
2021/10/13 11:11:34;;;;;;;3.40;2.70;;;11.90;97.30;;;;;;5006201;28;20447;-87
2021/10/13 11:14:09;;;;;;;4.90;2.80;;;12.00;96.70;;;;;;4993274;28;20445;-87
2021/10/13 11:16:46;;;;;;;3.50;2.47;;;12.20;96.70;;;;;;4994624;28;20408;-87
2021/10/13 11:19:19;;;;;;;8.13;2.50;;;12.30;95.50;;;;;;4993171;28;20417;-88
2021/10/13 11:21:53;;;;;;;3.57;2.40;;;12.50;95.80;;;;;;4993625;28;20421;-87
2021/10/13 11:24:18;;;;;;;2.70;2.50;;;12.80;97.00;;;;;;4993639;28;20510;-88
2021/10/13 11:26:44;;;;;;;6.40;3.13;;;13.10;95.50;;;;;;4993296;28;20425;-87
2021/10/13 11:29:18;;;;;;;3.23;2.27;;;13.30;94.00;;;;;;4993395;28;20273;-88
2021/10/13 11:31:44;;;;;;;2.93;1.80;;;13.40;92.00;;;;;;4993308;28;20635;-86
2021/10/13 11:34:10;;;;;;;2.97;2.10;;;13.40;91.30;;;;;;4994660;28;20488;-87
2021/10/13 11:36:53;;;;;;;3.70;2.53;;;13.30;91.60;;;;;;4993228;28;20174;-87
2021/10/13 11:39:25;;;;;;;8.27;2.57;;;12.90;92.10;;;;;;5012232;28;20674;-88
2021/10/13 11:41:51;;;;;;;5.50;2.47;;;12.60;93.80;;;;;;5002735;28;20413;-88
2021/10/13 11:44:20;;;;;;;8.27;2.17;;;12.30;94.20;;;;;;4994219;28;20780;-88
2021/10/13 11:47:15;;;;;;;5.30;2.67;;;12.00;95.10;;;;;;4992736;28;20421;-88
2021/10/13 11:49:56;;;;;;;4.00;2.20;;;11.80;95.80;;;;;;5004729;28;20997;-86
2021/10/13 11:52:22;;;;;;;4.63;2.30;;;11.70;96.60;;;;;;5013987;28;20821;-87
2021/10/13 11:54:55;;;;;;;1.90;1.90;;;11.60;96.70;;;;;;5012247;28;20444;-86
2021/10/13 11:57:23;;;;;;;3.83;2.13;;;11.60;96.70;;;;;;5012567;28;20424;-87
2021/10/13 12:00:20;;;;;;;2.23;2.07;;;11.70;96.20;;;;;;5012191;28;20459;-88
2021/10/13 12:03:10;;;;;;;2.70;2.40;;;11.90;95.60;;;;;;5012338;28;20914;-88
2021/10/13 12:05:42;;;;;;;5.80;2.47;;;12.30;95.50;;;;;;5012593;28;20455;-87
2021/10/13 12:08:13;;;;;;;3.27;2.33;;;12.70;95.50;;;;;;5013535;28;20454;-88
2021/10/13 12:10:44;;;;;;;7.10;3.33;;;13.10;94.60;;;;;;5012176;28;20424;-87
2021/10/13 12:13:12;;;;;;;4.00;3.00;;;13.50;94.30;;;;;;5022697;28;20918;-88
2021/10/13 12:15:41;;;;;;;2.73;2.60;;;13.80;94.30;;;;;;5021121;28;20555;-88
2021/10/13 12:18:12;;;;;;;3.20;2.23;;;14.00;93.20;;;;;;5012443;28;20423;-85
2021/10/13 12:20:38;;;;;;;3.50;1.90;;;14.20;90.60;;;;;;5014989;28;20461;-85
2021/10/13 12:23:13;;;;;;;7.33;2.10;;;14.20;89.80;;;;;;5027466;28;20419;-83
2021/10/13 12:25:38;;;;;;;4.93;2.33;;;14.20;89.30;;;;;;5023261;28;21039;-85
2021/10/13 12:28:15;;;;;;;6.10;2.50;;;14.30;90.20;;;;;;5019406;28;20417;-87
2021/10/13 12:30:41;;;;;;;3.43;1.80;;;14.50;90.60;;;;;;5019559;28;20238;-88
2021/10/13 12:33:12;;;;;;;2.37;1.43;;;14.80;87.40;;;;;;5025701;28;20426;-88
2021/10/13 12:35:38;;;;;;;3.33;1.67;;;15.00;86.80;;;;;;5017953;28;20196;-88
2021/10/13 12:38:21;;;;;;;3.27;1.60;;;15.10;85.00;;;;;;5013384;28;20431;-88
2021/10/13 12:41:05;;;;;;;1.70;1.37;;;15.00;84.70;;;;;;5011878;28;20527;-85
2021/10/13 12:43:37;;;;;;;2.97;1.50;;;14.60;85.20;;;;;;4997392;28;20420;-84
2021/10/13 12:46:31;;;;;;;2.40;1.70;;;14.50;84.10;;;;;;5012594;28;20491;-84
2021/10/13 12:49:09;;;;;;;2.00;1.70;;;14.60;84.90;;;;;;5012466;28;20475;-85
2021/10/13 12:51:46;;;;;;;2.77;1.67;;;14.90;84.10;;;;;;5011993;28;20418;-85
2021/10/13 12:54:11;;;;;;;1.77;1.67;;;15.20;83.10;;;;;;5019572;28;20431;-86
2021/10/13 12:56:37;;;;;;;2.00;1.90;;;15.30;83.60;;;;;;5033675;28;20430;-84
2021/10/13 12:59:02;;;;;;;2.07;1.67;;;15.30;84.30;;;;;;5033173;28;20173;-85
2021/10/13 13:01:28;;;;;;;2.60;1.53;;;15.30;83.40;;;;;;5032863;28;20666;-84